Time;durP1;ratioP1;P1;durP2;ratioP2;P2;SDS_P1;SDS_P2;PMS_P1;PMS_P2;Temp;Humidity;BMP_temperature;BMP_pressure;BME280_temperature;BME280_humidity;BME280_pressure;Samples;Min_cycle;Max_cycle;Signal;HPM_P1;HPM_P2
2021/12/14 00:00:27;;;;;;;23.45;11.80;;;1.60;99.90;;;;;;5030680;28;20025;-75
2021/12/14 00:02:53;;;;;;;24.50;12.10;;;1.60;99.90;;;;;;5030425;28;20113;-75
2021/12/14 00:05:22;;;;;;;24.13;12.13;;;1.60;99.90;;;;;;5029672;28;20025;-75
2021/12/14 00:07:49;;;;;;;27.25;11.98;;;1.60;99.90;;;;;;5049918;28;20048;-75
2021/12/14 00:13:29;;;;;;;22.23;11.38;;;1.60;99.90;;;;;;5048512;28;20037;-75
2021/12/14 00:15:54;;;;;;;27.00;11.80;;;1.60;99.90;;;;;;5029756;28;20053;-73
2021/12/14 00:18:21;;;;;;;26.25;12.10;;;1.60;99.90;;;;;;5031271;28;20085;-73
2021/12/14 00:20:59;;;;;;;26.55;12.75;;;1.60;99.90;;;;;;5049058;28;20028;-74
2021/12/14 00:26:14;;;;;;;21.52;10.88;;;1.60;99.90;;;;;;5049943;28;20060;-74
2021/12/14 00:28:40;;;;;;;23.85;11.35;;;1.60;99.90;;;;;;5049698;28;20101;-74
2021/12/14 00:31:13;;;;;;;23.38;12.88;;;1.70;99.90;;;;;;5043595;28;20025;-74
2021/12/14 00:33:40;;;;;;;23.08;11.40;;;1.60;99.90;;;;;;5028928;28;20536;-74
2021/12/14 00:36:08;;;;;;;26.08;11.02;;;1.60;99.90;;;;;;5031846;28;20025;-75
2021/12/14 00:38:35;;;;;;;24.05;11.77;;;1.70;99.90;;;;;;5031358;28;20115;-74
2021/12/14 00:41:09;;;;;;;22.83;11.32;;;1.60;99.90;;;;;;5027735;28;20120;-74
2021/12/14 00:43:35;;;;;;;26.00;12.43;;;1.60;99.90;;;;;;5027196;28;20036;-75
2021/12/14 00:46:01;;;;;;;22.30;11.55;;;1.60;99.90;;;;;;5049802;28;20029;-74
2021/12/14 00:48:27;;;;;;;;;;;1.60;99.90;;;;;;5047104;28;20029;-74
2021/12/14 00:50:56;;;;;;;21.48;10.48;;;1.60;99.90;;;;;;5029275;28;19909;-74
2021/12/14 00:53:22;;;;;;;26.00;12.07;;;1.60;99.90;;;;;;5042163;28;20113;-74
2021/12/14 00:55:50;;;;;;;22.15;11.77;;;1.70;99.90;;;;;;5049249;28;20131;-74
2021/12/14 00:58:17;;;;;;;22.48;11.38;;;1.60;99.90;;;;;;5049040;28;20033;-74
2021/12/14 01:00:47;;;;;;;;;;;1.70;99.90;;;;;;5048945;28;20052;-74
2021/12/14 01:03:14;;;;;;;25.20;11.25;;;1.70;99.90;;;;;;5036639;28;19913;-74
2021/12/14 01:05:43;;;;;;;24.95;11.35;;;1.70;99.90;;;;;;5031414;28;20494;-75
2021/12/14 01:08:13;;;;;;;23.73;10.70;;;1.70;99.90;;;;;;5031387;28;20044;-74
2021/12/14 01:11:11;;;;;;;23.90;10.55;;;1.60;99.90;;;;;;5031370;28;20017;-74
2021/12/14 01:13:43;;;;;;;28.83;12.77;;;1.60;99.90;;;;;;5033089;28;20029;-74
2021/12/14 01:16:30;;;;;;;25.63;12.55;;;1.60;99.90;;;;;;5031449;28;20033;-74
2021/12/14 01:19:12;;;;;;;23.42;11.52;;;1.60;99.90;;;;;;5049148;28;20538;-74
2021/12/14 01:27:12;;;;;;;24.80;11.52;;;1.60;99.90;;;;;;5048747;28;20033;-74
2021/12/14 01:29:40;;;;;;;23.45;12.95;;;1.60;99.90;;;;;;5030636;28;20028;-74
2021/12/14 01:32:07;;;;;;;22.08;10.95;;;1.60;99.90;;;;;;5047587;28;20037;-75
2021/12/14 01:34:36;;;;;;;24.98;12.48;;;1.70;99.90;;;;;;5040558;28;20835;-74
2021/12/14 01:37:08;;;;;;;22.98;11.45;;;1.70;99.90;;;;;;5049149;28;20041;-74
2021/12/14 01:42:26;;;;;;;25.67;12.25;;;1.70;99.90;;;;;;5040801;28;20116;-74
2021/12/14 01:44:57;;;;;;;;;;;1.60;99.90;;;;;;5043143;28;20064;-74
2021/12/14 01:47:29;;;;;;;23.40;11.82;;;1.50;99.90;;;;;;5047860;28;20369;-73
2021/12/14 01:49:55;;;;;;;24.85;11.20;;;1.60;99.90;;;;;;5030479;28;20063;-73
2021/12/14 01:52:29;;;;;;;27.65;12.93;;;1.60;99.90;;;;;;5048053;28;20377;-73
2021/12/14 01:55:00;;;;;;;26.58;12.98;;;1.60;99.90;;;;;;5048525;28;20104;-74
2021/12/14 01:57:30;;;;;;;24.13;11.48;;;1.60;99.90;;;;;;5030694;28;20468;-74
2021/12/14 01:59:58;;;;;;;23.13;12.25;;;1.60;99.90;;;;;;5033784;28;20500;-74
2021/12/14 02:02:42;;;;;;;26.88;12.73;;;1.50;99.90;;;;;;5022111;28;20033;-73
2021/12/14 02:05:20;;;;;;;21.58;11.23;;;1.50;99.90;;;;;;5048440;28;20029;-73
2021/12/14 02:07:48;;;;;;;20.38;10.60;;;1.50;99.90;;;;;;5052160;28;20265;-75
2021/12/14 02:10:22;;;;;;;22.77;11.43;;;1.50;99.90;;;;;;5052194;28;20021;-75
2021/12/14 02:12:48;;;;;;;23.60;10.57;;;1.50;99.90;;;;;;5042124;28;20034;-72
2021/12/14 02:15:22;;;;;;;25.60;12.38;;;1.50;99.90;;;;;;5031279;28;20318;-73
2021/12/14 02:17:50;;;;;;;23.98;11.98;;;1.50;99.90;;;;;;5052063;28;20031;-73
2021/12/14 02:20:20;;;;;;;22.05;10.98;;;1.50;99.90;;;;;;5052312;28;20021;-75
2021/12/14 02:22:46;;;;;;;24.20;11.60;;;1.50;99.90;;;;;;5026880;28;20033;-75
2021/12/14 02:25:13;;;;;;;20.52;10.77;;;1.60;99.90;;;;;;5048924;28;20025;-73
2021/12/14 02:27:42;;;;;;;;;;;1.50;99.90;;;;;;5052369;28;20037;-74
2021/12/14 02:30:16;;;;;;;23.70;11.73;;;1.50;99.90;;;;;;5033866;28;19931;-74
2021/12/14 02:32:42;;;;;;;22.45;12.02;;;1.50;99.90;;;;;;5036920;28;20025;-74
2021/12/14 02:35:12;;;;;;;20.77;10.27;;;1.50;99.90;;;;;;5030034;28;20063;-74
2021/12/14 02:37:43;;;;;;;20.42;10.80;;;1.60;99.90;;;;;;5033936;28;20037;-74
2021/12/14 02:40:20;;;;;;;22.55;11.15;;;1.50;99.90;;;;;;5033876;28;20079;-74
2021/12/14 02:42:51;;;;;;;23.98;11.45;;;1.50;99.90;;;;;;5032426;28;20454;-74
2021/12/14 02:45:20;;;;;;;25.10;11.38;;;1.50;99.90;;;;;;5033702;28;20052;-74
2021/12/14 02:47:46;;;;;;;23.70;10.75;;;1.50;99.90;;;;;;5033551;28;20128;-73
2021/12/14 02:50:13;;;;;;;20.75;10.77;;;1.40;99.90;;;;;;5033380;28;20107;-73
2021/12/14 02:52:40;;;;;;;21.90;10.60;;;1.50;99.90;;;;;;5050624;28;20524;-73
2021/12/14 02:55:23;;;;;;;;;;;1.50;99.90;;;;;;5051407;28;20033;-75
2021/12/14 02:57:57;;;;;;;20.73;10.90;;;1.50;99.90;;;;;;5033235;28;20348;-74
2021/12/14 03:00:34;;;;;;;23.65;11.35;;;1.50;99.90;;;;;;5048849;28;20036;-75
2021/12/14 03:03:01;;;;;;;24.88;11.77;;;1.50;99.90;;;;;;5044951;28;20086;-74
2021/12/14 03:05:32;;;;;;;20.13;10.98;;;1.50;99.90;;;;;;5033229;28;20032;-75
2021/12/14 03:08:07;;;;;;;23.63;11.57;;;1.50;99.90;;;;;;5033621;28;20384;-74
2021/12/14 03:10:53;;;;;;;21.23;11.40;;;1.50;99.90;;;;;;5049961;28;20561;-74
2021/12/14 03:13:20;;;;;;;22.73;10.82;;;1.50;99.90;;;;;;5040825;28;20388;-74
2021/12/14 03:15:52;;;;;;;20.30;10.98;;;1.50;99.90;;;;;;5033280;28;20295;-74
2021/12/14 03:18:25;;;;;;;22.77;11.10;;;1.50;99.90;;;;;;5032917;28;20045;-74
2021/12/14 03:21:11;;;;;;;20.15;10.07;;;1.50;99.90;;;;;;5033285;28;20033;-74
2021/12/14 03:23:50;;;;;;;20.23;10.65;;;1.50;99.90;;;;;;5024286;28;20025;-73
2021/12/14 03:26:19;;;;;;;19.88;9.80;;;1.50;99.90;;;;;;5032788;28;20128;-74
2021/12/14 03:28:49;;;;;;;21.23;11.23;;;1.50;99.90;;;;;;5027884;28;20098;-73
2021/12/14 03:31:14;;;;;;;20.73;9.85;;;1.50;99.90;;;;;;5031373;28;20052;-74
2021/12/14 03:33:51;;;;;;;21.37;10.47;;;1.40;99.90;;;;;;5041011;28;20061;-75
2021/12/14 03:36:37;;;;;;;;;;;1.40;99.90;;;;;;5051651;28;20056;-74
2021/12/14 03:39:18;;;;;;;21.10;9.77;;;1.40;99.90;;;;;;5043392;28;19963;-74
2021/12/14 03:41:44;;;;;;;24.75;11.85;;;1.40;99.90;;;;;;5013226;28;20049;-74
2021/12/14 03:44:15;;;;;;;25.67;11.83;;;1.40;99.90;;;;;;5039572;28;20064;-75
2021/12/14 03:46:51;;;;;;;22.50;10.70;;;1.40;99.90;;;;;;5051105;28;20059;-75
2021/12/14 03:49:19;;;;;;;20.23;10.88;;;1.30;99.90;;;;;;5050323;28;20563;-73
2021/12/14 03:51:45;;;;;;;20.40;9.63;;;1.40;99.90;;;;;;5049611;28;20371;-74
2021/12/14 03:54:15;;;;;;;22.95;10.80;;;1.30;99.90;;;;;;5043755;28;20488;-74
2021/12/14 03:56:41;;;;;;;19.70;9.73;;;1.30;99.90;;;;;;5050570;28;20049;-74
2021/12/14 03:59:06;;;;;;;19.93;10.60;;;1.30;99.90;;;;;;5050123;28;20033;-73
2021/12/14 04:01:37;;;;;;;19.07;10.10;;;1.20;99.90;;;;;;5031225;28;20804;-74
2021/12/14 04:04:30;;;;;;;19.65;9.38;;;1.20;99.90;;;;;;5037168;28;20074;-74
2021/12/14 04:06:59;;;;;;;16.42;8.82;;;1.30;99.90;;;;;;5015746;28;20437;-73
2021/12/14 04:09:29;;;;;;;18.95;9.73;;;1.30;99.90;;;;;;5031680;28;20029;-74
2021/12/14 04:11:56;;;;;;;20.75;9.52;;;1.30;99.90;;;;;;5037849;28;20034;-74
2021/12/14 04:14:22;;;;;;;19.70;9.13;;;1.30;99.90;;;;;;5021873;28;20025;-75
2021/12/14 04:16:51;;;;;;;20.58;10.88;;;1.30;99.90;;;;;;5050598;28;20057;-73
2021/12/14 04:19:22;;;;;;;19.83;8.98;;;1.30;99.90;;;;;;5031922;28;20033;-74
2021/12/14 04:21:49;;;;;;;21.25;10.40;;;1.20;99.90;;;;;;5030079;28;20033;-74
2021/12/14 04:24:21;;;;;;;22.23;9.52;;;1.30;99.90;;;;;;5020975;28;20040;-74
2021/12/14 04:26:47;;;;;;;17.67;9.20;;;1.30;99.90;;;;;;5049583;28;20021;-74
2021/12/14 04:29:14;;;;;;;23.77;10.57;;;1.30;99.90;;;;;;5049811;28;20048;-73
2021/12/14 04:31:41;;;;;;;;;;;1.30;99.90;;;;;;5040227;28;20033;-73
2021/12/14 04:34:07;;;;;;;24.23;10.90;;;1.20;99.90;;;;;;5031658;28;19998;-73
2021/12/14 04:36:33;;;;;;;18.50;10.10;;;1.20;99.90;;;;;;5031816;28;20057;-73
2021/12/14 04:39:29;;;;;;;20.92;10.95;;;1.20;99.90;;;;;;5031381;28;20033;-74
2021/12/14 04:53:22;;;;;;;20.92;10.40;;;1.20;99.90;;;;;;5049628;28;20035;-74
2021/12/14 04:55:50;;;;;;;22.20;11.93;;;1.20;99.90;;;;;;5031213;28;20061;-74
2021/12/14 04:58:27;;;;;;;18.85;10.35;;;1.20;99.90;;;;;;5030980;28;20029;-74
2021/12/14 05:00:54;;;;;;;18.33;10.23;;;1.20;99.90;;;;;;5048572;28;20029;-75
2021/12/14 05:03:27;;;;;;;23.15;10.55;;;1.10;99.90;;;;;;5048273;28;20357;-75
2021/12/14 05:06:08;;;;;;;18.73;10.05;;;1.20;99.90;;;;;;5049417;28;20408;-76
2021/12/14 05:11:06;;;;;;;21.55;10.52;;;1.20;99.90;;;;;;5039921;28;20034;-75
2021/12/14 05:13:39;;;;;;;25.48;11.55;;;1.20;99.90;;;;;;5032075;28;20040;-74
2021/12/14 05:16:06;;;;;;;21.77;10.13;;;1.20;99.90;;;;;;5049661;28;20036;-73
2021/12/14 05:18:32;;;;;;;20.75;10.48;;;1.20;99.90;;;;;;5031108;28;20068;-73
2021/12/14 05:20:59;;;;;;;23.10;11.75;;;1.20;99.90;;;;;;5048220;28;20068;-73
2021/12/14 05:23:34;;;;;;;19.67;11.10;;;1.20;99.90;;;;;;5027555;28;20036;-74
2021/12/14 05:26:03;;;;;;;25.60;13.00;;;1.20;99.90;;;;;;5028094;28;20029;-74
2021/12/14 05:28:29;;;;;;;20.30;10.98;;;1.20;99.90;;;;;;5029816;28;20076;-74
2021/12/14 05:30:58;;;;;;;24.20;12.73;;;1.20;99.90;;;;;;5048236;28;20021;-74
2021/12/14 05:33:31;;;;;;;24.50;11.48;;;1.20;99.90;;;;;;5047195;28;20179;-74
2021/12/14 05:36:01;;;;;;;21.27;11.57;;;1.20;99.90;;;;;;5049541;28;20036;-75
2021/12/14 05:38:47;;;;;;;22.50;11.73;;;1.20;99.90;;;;;;5050284;28;20029;-75
2021/12/14 05:44:03;;;;;;;21.55;11.70;;;1.20;99.90;;;;;;5039655;28;20048;-74
2021/12/14 05:46:29;;;;;;;19.83;10.73;;;1.20;99.90;;;;;;5035082;28;20059;-73
2021/12/14 05:49:05;;;;;;;24.98;12.02;;;1.20;99.90;;;;;;5052338;28;20328;-73
2021/12/14 05:51:32;;;;;;;23.05;11.15;;;1.20;99.90;;;;;;5050756;28;20033;-74
2021/12/14 05:53:58;;;;;;;22.63;11.10;;;1.20;99.90;;;;;;5038647;28;20079;-74
2021/12/14 05:56:27;;;;;;;26.73;11.88;;;1.20;99.90;;;;;;5052564;28;20496;-74
2021/12/14 05:58:55;;;;;;;23.42;11.57;;;1.20;99.90;;;;;;5034132;28;20422;-74
2021/12/14 06:01:24;;;;;;;23.98;11.75;;;1.20;99.90;;;;;;5034000;28;20470;-74
2021/12/14 06:04:09;;;;;;;26.55;11.80;;;1.20;99.90;;;;;;5050529;28;20384;-74
2021/12/14 06:06:49;;;;;;;25.83;12.20;;;1.20;99.90;;;;;;5052973;28;20029;-73
2021/12/14 06:09:24;;;;;;;25.90;12.88;;;1.20;99.90;;;;;;5042904;28;20033;-74
2021/12/14 06:11:55;;;;;;;22.65;12.20;;;1.20;99.90;;;;;;5036287;28;20047;-74
2021/12/14 06:14:23;;;;;;;21.15;11.63;;;1.20;99.90;;;;;;5049786;28;20029;-73
2021/12/14 06:16:53;;;;;;;23.10;12.48;;;1.20;99.90;;;;;;5052339;28;20033;-72
2021/12/14 06:19:26;;;;;;;21.35;11.80;;;1.30;99.90;;;;;;5051319;28;20575;-72
2021/12/14 06:22:03;;;;;;;22.08;10.80;;;0.60;99.90;;;;;;5050778;28;20033;-72
2021/12/14 06:24:31;;;;;;;26.40;11.68;;;1.40;99.90;;;;;;5050369;28;20033;-72
2021/12/14 06:27:00;;;;;;;29.00;12.65;;;1.40;99.90;;;;;;5052194;28;20048;-71
2021/12/14 06:29:36;;;;;;;25.00;12.55;;;1.50;99.90;;;;;;5051371;28;20036;-72
2021/12/14 06:32:26;;;;;;;21.20;10.65;;;1.50;99.90;;;;;;5029644;28;20532;-73
2021/12/14 06:34:56;;;;;;;24.02;11.73;;;1.50;99.90;;;;;;5029125;28;20117;-73
2021/12/14 06:40:19;;;;;;;24.30;13.40;;;1.50;99.90;;;;;;5035542;28;20430;-73
2021/12/14 06:42:52;;;;;;;24.50;12.07;;;1.50;99.90;;;;;;5019409;28;20037;-73
2021/12/14 06:45:31;;;;;;;24.33;13.60;;;1.50;99.90;;;;;;5047806;28;20124;-73
2021/12/14 06:48:04;;;;;;;24.63;11.55;;;1.50;99.90;;;;;;5042039;28;20037;-73
2021/12/14 06:50:40;;;;;;;23.30;11.80;;;1.40;99.90;;;;;;5017704;28;20426;-72
2021/12/14 06:53:10;;;;;;;23.42;12.77;;;1.40;99.90;;;;;;5043500;28;20488;-73
2021/12/14 06:55:37;;;;;;;25.02;11.90;;;1.40;99.90;;;;;;5031104;28;20052;-73
2021/12/14 06:58:25;;;;;;;22.88;12.82;;;1.40;99.90;;;;;;5031332;28;20072;-75
2021/12/14 07:01:14;;;;;;;27.13;12.77;;;1.50;99.90;;;;;;5031556;28;20033;-73
2021/12/14 07:03:45;;;;;;;24.25;11.57;;;1.50;99.90;;;;;;5032144;28;20032;-70
2021/12/14 07:06:22;;;;;;;22.98;12.15;;;1.40;99.90;;;;;;5049644;28;20033;-75
2021/12/14 07:08:48;;;;;;;24.92;13.18;;;1.50;99.90;;;;;;5050424;28;20045;-74
2021/12/14 07:11:22;;;;;;;26.95;13.60;;;1.50;99.90;;;;;;5031867;28;20043;-73
2021/12/14 07:13:48;;;;;;;23.30;12.93;;;1.60;99.90;;;;;;5041920;28;20090;-74
2021/12/14 07:16:30;;;;;;;26.15;13.65;;;1.60;99.90;;;;;;5032006;28;20067;-73
2021/12/14 07:18:59;;;;;;;25.48;13.30;;;1.50;99.90;;;;;;5044441;28;20370;-73
2021/12/14 07:21:37;;;;;;;23.65;12.52;;;1.40;99.90;;;;;;5033388;28;20025;-74
2021/12/14 07:24:23;;;;;;;24.88;12.75;;;1.40;99.90;;;;;;5047986;28;20044;-73
2021/12/14 07:27:17;;;;;;;22.95;12.18;;;1.40;99.90;;;;;;5029537;28;20037;-73
2021/12/14 07:29:43;;;;;;;25.60;12.75;;;1.40;99.90;;;;;;5034911;28;20064;-73
2021/12/14 07:32:09;;;;;;;29.33;12.80;;;1.50;99.90;;;;;;5022389;28;20029;-74
2021/12/14 07:34:35;;;;;;;30.30;12.63;;;1.40;99.90;;;;;;5045496;28;20036;-73
2021/12/14 07:37:01;;;;;;;26.60;12.60;;;1.40;99.90;;;;;;5035254;28;20041;-74
2021/12/14 07:39:27;;;;;;;23.47;11.70;;;1.40;99.90;;;;;;5039247;28;20033;-74
2021/12/14 07:41:56;;;;;;;25.00;12.33;;;1.40;99.90;;;;;;5042285;28;20029;-66
2021/12/14 07:44:29;;;;;;;23.33;12.43;;;1.40;99.90;;;;;;5045440;28;20047;-73
2021/12/14 07:47:21;;;;;;;24.65;11.45;;;1.40;99.90;;;;;;5048115;28;20728;-74
2021/12/14 07:49:57;;;;;;;29.17;15.77;;;1.30;99.90;;;;;;5031771;28;20037;-73
2021/12/14 07:52:28;;;;;;;27.73;13.52;;;1.40;99.90;;;;;;5028763;28;20163;-74
2021/12/14 07:54:56;;;;;;;23.25;11.73;;;1.40;99.90;;;;;;5044051;28;20405;-74
2021/12/14 07:57:31;;;;;;;25.02;12.75;;;1.40;99.90;;;;;;5030415;28;20080;-73
2021/12/14 08:00:17;;;;;;;24.83;12.50;;;1.40;99.90;;;;;;5038759;28;20059;-73
2021/12/14 08:02:49;;;;;;;21.60;11.82;;;1.40;99.90;;;;;;5038897;28;20099;-72
2021/12/14 08:05:29;;;;;;;23.92;12.95;;;1.40;99.90;;;;;;5038822;28;20083;-72
2021/12/14 08:08:00;;;;;;;25.80;12.85;;;1.40;99.90;;;;;;5030339;28;20041;-73
2021/12/14 08:10:29;;;;;;;28.77;13.90;;;1.40;99.90;;;;;;5041714;28;22593;-74
2021/12/14 08:12:58;;;;;;;27.40;12.88;;;1.40;99.90;;;;;;5039818;28;20029;-74
2021/12/14 08:15:29;;;;;;;25.67;13.02;;;1.50;99.90;;;;;;5048014;28;20033;-73
2021/12/14 08:18:07;;;;;;;56.40;28.30;;;1.50;99.90;;;;;;5048701;28;20037;-73
2021/12/14 08:20:35;;;;;;;27.48;15.52;;;1.60;99.90;;;;;;5031240;28;20029;-72
2021/12/14 08:23:36;;;;;;;97.35;43.42;;;1.60;99.90;;;;;;5045514;28;20033;-72
2021/12/14 08:26:16;;;;;;;24.85;12.70;;;1.70;99.90;;;;;;5034635;28;20041;-73
2021/12/14 08:29:05;;;;;;;23.77;12.38;;;1.70;99.90;;;;;;5037182;28;20069;-67
2021/12/14 08:31:33;;;;;;;25.65;12.20;;;1.70;99.90;;;;;;5035288;28;20370;-68
2021/12/14 08:34:10;;;;;;;24.00;12.52;;;1.80;99.90;;;;;;5039480;28;20158;-68
2021/12/14 08:36:47;;;;;;;24.48;11.60;;;1.80;99.90;;;;;;5028181;28;20029;-68
2021/12/14 08:39:26;;;;;;;23.27;12.20;;;1.80;99.90;;;;;;5047946;28;20029;-69
2021/12/14 08:42:03;;;;;;;24.20;11.27;;;1.80;99.90;;;;;;5024544;28;20112;-70
2021/12/14 08:44:38;;;;;;;;;;;1.80;99.90;;;;;;5039665;28;20033;-70
2021/12/14 08:47:09;;;;;;;20.77;10.35;;;1.80;99.90;;;;;;5020527;28;19925;-74
2021/12/14 08:49:35;;;;;;;23.50;11.82;;;1.80;99.90;;;;;;5026193;28;20115;-73
2021/12/14 08:52:02;;;;;;;25.08;12.32;;;1.80;99.90;;;;;;5039699;28;20692;-71
2021/12/14 08:54:31;;;;;;;24.73;12.25;;;1.80;99.90;;;;;;5023496;28;20397;-71
2021/12/14 08:57:16;;;;;;;22.98;12.07;;;1.80;99.90;;;;;;5041610;28;20076;-70
2021/12/14 08:59:47;;;;;;;20.77;10.80;;;1.80;99.90;;;;;;5039114;28;20039;-70
2021/12/14 09:02:15;;;;;;;20.30;11.55;;;1.80;99.90;;;;;;5041563;28;20037;-70
2021/12/14 09:04:48;;;;;;;23.98;13.10;;;1.80;99.90;;;;;;5035520;28;20040;-71
2021/12/14 09:07:25;;;;;;;25.13;13.52;;;1.80;99.90;;;;;;5036979;28;20439;-69
2021/12/14 09:09:53;;;;;;;29.77;16.50;;;1.80;99.90;;;;;;5024284;28;20079;-71
2021/12/14 09:12:24;;;;;;;24.25;12.93;;;1.80;99.90;;;;;;5040283;28;20060;-71
2021/12/14 09:14:52;;;;;;;24.02;13.35;;;1.90;99.90;;;;;;5022504;28;20108;-68
2021/12/14 09:17:22;;;;;;;27.50;12.52;;;2.00;99.90;;;;;;5042643;28;20246;-72
2021/12/14 09:20:07;;;;;;;26.77;14.50;;;2.00;99.90;;;;;;5045466;28;20503;-71
2021/12/14 09:22:41;;;;;;;25.05;12.73;;;1.90;99.90;;;;;;5024023;28;20052;-70
2021/12/14 09:25:14;;;;;;;22.92;11.82;;;1.90;99.90;;;;;;5029626;28;20036;-74
2021/12/14 09:27:40;;;;;;;22.02;12.40;;;1.90;99.90;;;;;;5041460;28;20036;-73
2021/12/14 09:30:10;;;;;;;;;;;1.90;99.90;;;;;;5046960;28;20877;-73
2021/12/14 09:32:37;;;;;;;21.38;12.38;;;1.90;99.90;;;;;;5035984;28;19920;-75
2021/12/14 09:35:06;;;;;;;20.10;11.10;;;1.90;99.90;;;;;;5046130;28;20036;-74
2021/12/14 09:37:32;;;;;;;22.48;11.65;;;1.80;99.90;;;;;;5028440;28;20041;-74
2021/12/14 09:40:11;;;;;;;17.85;10.07;;;1.80;99.90;;;;;;5047463;28;20033;-71
2021/12/14 09:42:38;;;;;;;23.60;11.85;;;1.80;99.90;;;;;;5041335;28;20555;-70
2021/12/14 09:45:10;;;;;;;19.77;10.45;;;1.80;99.90;;;;;;5042908;28;20029;-70
2021/12/14 09:47:37;;;;;;;21.33;12.07;;;1.80;99.90;;;;;;5040968;28;20048;-75
2021/12/14 09:50:19;;;;;;;23.25;11.07;;;1.80;99.90;;;;;;5024571;28;20456;-69
2021/12/14 09:52:47;;;;;;;19.65;10.93;;;1.80;99.90;;;;;;5041387;28;20490;-72
2021/12/14 09:55:20;;;;;;;21.00;10.98;;;1.80;99.90;;;;;;5038128;28;20108;-72
2021/12/14 09:57:50;;;;;;;19.83;11.23;;;1.70;99.90;;;;;;5045668;28;20064;-70
2021/12/14 10:00:30;;;;;;;24.98;11.60;;;1.80;99.90;;;;;;5043924;28;20029;-73
2021/12/14 10:02:58;;;;;;;23.23;11.95;;;1.80;99.90;;;;;;5039919;28;20514;-73
2021/12/14 10:05:53;;;;;;;20.40;10.95;;;1.90;99.90;;;;;;5038575;28;20040;-75
2021/12/14 10:08:27;;;;;;;21.83;12.40;;;1.90;99.90;;;;;;5036796;28;20041;-74
2021/12/14 10:11:04;;;;;;;19.95;10.13;;;1.90;99.90;;;;;;5041719;28;20023;-71
2021/12/14 10:13:34;;;;;;;20.48;11.65;;;2.00;99.90;;;;;;5023290;28;20033;-71
2021/12/14 10:16:02;;;;;;;20.58;11.55;;;2.00;99.90;;;;;;5020781;28;20033;-65
2021/12/14 10:18:37;;;;;;;20.90;11.02;;;2.00;99.90;;;;;;5039979;28;20049;-71
2021/12/14 10:21:15;;;;;;;17.73;9.63;;;2.10;99.90;;;;;;5043594;28;20039;-70
2021/12/14 10:23:42;;;;;;;21.45;10.85;;;2.00;99.90;;;;;;5041644;28;20033;-70
2021/12/14 10:26:09;;;;;;;21.73;11.43;;;2.00;99.90;;;;;;5040518;28;20350;-69
2021/12/14 10:28:38;;;;;;;16.05;9.15;;;2.00;99.90;;;;;;5041540;28;20029;-68
2021/12/14 10:31:18;;;;;;;18.10;9.70;;;2.00;99.90;;;;;;5042349;28;20108;-70
2021/12/14 10:33:44;;;;;;;17.55;9.65;;;2.10;99.90;;;;;;5039359;28;20060;-70
2021/12/14 10:36:31;;;;;;;18.33;10.20;;;2.10;99.90;;;;;;5041337;28;20106;-70
2021/12/14 10:44:15;;;;;;;16.88;9.73;;;2.20;99.90;;;;;;5043505;28;20443;-69
2021/12/14 10:46:46;;;;;;;19.85;11.07;;;2.20;99.90;;;;;;5046337;28;20029;-71
2021/12/14 10:49:13;;;;;;;16.77;9.63;;;2.10;99.90;;;;;;5047283;28;20036;-72
2021/12/14 10:51:42;;;;;;;15.70;9.63;;;2.10;99.90;;;;;;5041772;28;20009;-73
2021/12/14 10:54:12;;;;;;;18.08;9.88;;;2.10;99.90;;;;;;5028671;28;20067;-73
2021/12/14 10:56:49;;;;;;;15.50;9.73;;;2.00;99.90;;;;;;5041605;28;20057;-70
2021/12/14 10:59:17;;;;;;;17.45;10.13;;;2.00;99.90;;;;;;5041346;28;20045;-69
2021/12/14 11:01:49;;;;;;;17.77;10.40;;;2.10;99.90;;;;;;5044645;28;20112;-71
2021/12/14 11:04:19;;;;;;;19.63;11.02;;;2.10;99.90;;;;;;5027168;28;20095;-71
2021/12/14 11:06:49;;;;;;;19.42;11.10;;;2.00;99.90;;;;;;5039155;28;20037;-70
2021/12/14 11:09:41;;;;;;;19.10;9.77;;;2.00;99.90;;;;;;5041417;28;20033;-70
2021/12/14 11:12:28;;;;;;;17.98;10.68;;;2.00;99.90;;;;;;5045654;28;20074;-71
2021/12/14 11:14:58;;;;;;;20.00;9.88;;;2.20;99.90;;;;;;5046255;28;20050;-71
2021/12/14 11:20:28;;;;;;;18.20;9.55;;;2.20;99.90;;;;;;5043722;28;20086;-72
2021/12/14 11:23:02;;;;;;;16.33;9.38;;;2.10;99.90;;;;;;5041008;28;20590;-71
2021/12/14 11:25:30;;;;;;;17.83;9.45;;;2.10;99.90;;;;;;5037955;28;20032;-71
2021/12/14 11:28:25;;;;;;;16.58;10.25;;;2.10;99.90;;;;;;5022633;28;20693;-72
2021/12/14 11:30:56;;;;;;;15.13;8.20;;;2.10;99.90;;;;;;5019366;28;20041;-71
2021/12/14 11:33:37;;;;;;;14.95;7.88;;;2.10;99.90;;;;;;5039921;28;20112;-71
2021/12/14 11:36:10;;;;;;;15.20;8.15;;;2.10;99.90;;;;;;5043189;28;20044;-71
2021/12/14 11:38:44;;;;;;;15.77;8.30;;;2.20;99.90;;;;;;5039679;28;20032;-71
2021/12/14 11:41:24;;;;;;;15.60;8.02;;;2.20;99.90;;;;;;5040144;28;20025;-70
2021/12/14 11:59:07;;;;;;;24.23;11.20;;;2.10;99.90;;;;;;5095377;27;20431;-67
2021/12/14 12:01:44;;;;;;;34.53;12.23;;;2.20;99.90;;;;;;5102121;28;20470;-70
2021/12/14 12:04:32;;;;;;;26.50;11.30;;;2.20;99.90;;;;;;5098673;28;20040;-74
2021/12/14 12:09:59;;;;;;;24.65;10.45;;;2.20;99.90;;;;;;5101379;28;19923;-71
2021/12/14 12:12:36;;;;;;;23.85;10.32;;;2.10;99.90;;;;;;5099860;28;20038;-73
2021/12/14 12:15:22;;;;;;;26.65;11.80;;;2.20;99.90;;;;;;5099987;28;20028;-73
2021/12/14 12:17:50;;;;;;;25.17;10.45;;;2.60;99.90;;;;;;5099026;28;20467;-73
2021/12/14 12:20:46;;;;;;;28.02;12.18;;;2.10;99.90;;;;;;5098700;28;20032;-73
2021/12/14 12:23:17;;;;;;;24.58;10.57;;;2.10;99.90;;;;;;5095490;28;20047;-72
2021/12/14 12:25:57;;;;;;;31.75;11.23;;;2.00;99.90;;;;;;5096007;28;20030;-71
2021/12/14 12:28:29;;;;;;;26.95;11.60;;;1.90;99.90;;;;;;5100873;28;20060;-73
2021/12/14 12:30:55;;;;;;;29.75;11.70;;;1.80;99.90;;;;;;5097498;28;20054;-70
2021/12/14 12:33:26;;;;;;;29.70;10.73;;;1.80;99.90;;;;;;5095341;28;20044;-74
2021/12/14 12:36:01;;;;;;;26.15;10.45;;;1.80;99.90;;;;;;5101978;28;20039;-74
2021/12/14 12:38:47;;;;;;;24.98;10.88;;;1.80;99.90;;;;;;5102074;28;20024;-70
2021/12/14 12:41:28;;;;;;;22.55;9.88;;;1.80;99.90;;;;;;5099893;28;20043;-74
2021/12/14 12:44:16;;;;;;;28.42;10.90;;;1.90;99.90;;;;;;5097585;28;20019;-70
2021/12/14 12:46:56;;;;;;;90.78;41.92;;;1.90;99.90;;;;;;5095748;28;20858;-72
2021/12/14 12:49:23;;;;;;;32.83;13.25;;;1.90;99.90;;;;;;5093069;28;20105;-73
2021/12/14 12:51:57;;;;;;;31.15;12.68;;;2.00;99.90;;;;;;5096534;28;20071;-75
2021/12/14 12:54:37;;;;;;;30.40;12.18;;;2.00;99.90;;;;;;5094342;28;20030;-74
2021/12/14 12:57:10;;;;;;;29.15;10.93;;;2.00;99.90;;;;;;5091799;28;20611;-73
2021/12/14 13:00:08;;;;;;;33.10;11.52;;;2.10;99.90;;;;;;5082917;28;20081;-73
2021/12/14 13:02:44;;;;;;;22.50;10.35;;;2.10;99.90;;;;;;5080438;28;20040;-72
2021/12/14 13:05:25;;;;;;;29.52;12.13;;;2.10;99.90;;;;;;5084101;28;20051;-74
2021/12/14 13:08:15;;;;;;;24.05;10.63;;;2.10;99.90;;;;;;5083263;28;20051;-74
2021/12/14 13:11:01;;;;;;;25.05;10.43;;;2.10;99.90;;;;;;5076956;28;20056;-74
2021/12/14 13:13:31;;;;;;;23.42;9.75;;;2.10;99.90;;;;;;5085079;28;20111;-69
2021/12/14 13:16:00;;;;;;;29.13;11.48;;;2.10;99.90;;;;;;5082610;28;20035;-74
2021/12/14 13:18:31;;;;;;;24.88;11.65;;;2.10;99.90;;;;;;5082578;28;20124;-73
2021/12/14 13:21:09;;;;;;;33.20;11.93;;;2.00;99.90;;;;;;5084038;28;20801;-72
2021/12/14 13:23:50;;;;;;;31.48;10.73;;;2.10;99.90;;;;;;5078031;28;20032;-73
2021/12/14 13:26:24;;;;;;;29.02;11.18;;;2.10;99.90;;;;;;5078972;28;20036;-72
2021/12/14 13:28:53;;;;;;;26.08;10.80;;;2.10;99.90;;;;;;5078345;28;20108;-74
2021/12/14 13:31:29;;;;;;;27.15;11.85;;;2.00;99.90;;;;;;5080935;28;20044;-71
2021/12/14 13:33:55;;;;;;;29.20;11.23;;;2.10;99.90;;;;;;5078019;28;20027;-71
2021/12/14 13:36:21;;;;;;;29.00;12.63;;;2.00;99.90;;;;;;5080802;28;20455;-73
2021/12/14 13:38:46;;;;;;;33.07;12.77;;;2.00;99.90;;;;;;5075632;28;20067;-74
2021/12/14 13:55:37;;;;;;;31.08;12.75;;;2.00;99.90;;;;;;5121312;27;20114;-71
2021/12/14 13:58:05;;;;;;;;;;;2.20;99.90;;;;;;5089134;28;20038;-69
2021/12/14 14:00:54;;;;;;;25.27;10.80;;;2.20;99.90;;;;;;5102821;28;19953;-70
2021/12/14 14:03:24;;;;;;;26.75;11.52;;;2.20;99.90;;;;;;5103500;28;20050;-72
2021/12/14 14:05:52;;;;;;;25.85;10.82;;;2.20;99.90;;;;;;5102193;28;20047;-71
2021/12/14 14:08:24;;;;;;;25.40;11.23;;;2.20;99.90;;;;;;5101042;28;20078;-70
2021/12/14 14:10:52;;;;;;;26.08;10.13;;;2.20;99.90;;;;;;5103168;28;20059;-72
2021/12/14 14:13:30;;;;;;;23.45;10.77;;;2.20;99.90;;;;;;5097649;28;20023;-71
2021/12/14 14:15:58;;;;;;;29.05;10.85;;;2.10;99.90;;;;;;5100995;28;20036;-68
2021/12/14 14:18:33;;;;;;;33.28;13.77;;;2.10;99.90;;;;;;5104383;28;20413;-69
2021/12/14 14:21:02;;;;;;;26.23;12.07;;;2.10;99.90;;;;;;5101217;28;20031;-70
2021/12/14 14:23:50;;;;;;;52.65;22.77;;;2.10;99.90;;;;;;5102808;28;20031;-71